createdAt,value
2023-04-25T00:00:18.712Z,23.07
2023-04-25T00:01:18.758Z,23.07
2023-04-25T00:02:18.847Z,23.06
2023-04-25T00:03:18.970Z,23.06
2023-04-25T00:04:19.257Z,23.06
2023-04-25T00:05:19.298Z,23.06
2023-04-25T00:06:18.908Z,23.05
2023-04-25T00:07:18.891Z,23.06
2023-04-25T00:08:18.950Z,23.05
2023-04-25T00:09:18.994Z,23.05
2023-04-25T00:10:19.258Z,23.05
2023-04-25T00:11:19.019Z,23.05
2023-04-25T00:12:19.084Z,23.06
2023-04-25T00:13:19.099Z,23.05
2023-04-25T00:14:19.154Z,23.05
2023-04-25T00:15:19.176Z,23.05
2023-04-25T00:16:19.175Z,23.04
2023-04-25T00:17:19.214Z,23.04
2023-04-25T00:18:19.228Z,23.04
2023-04-25T00:19:19.244Z,23.04
2023-04-25T00:20:19.272Z,23.03
2023-04-25T00:21:19.753Z,23.03
2023-04-25T00:22:19.331Z,23.03
2023-04-25T00:23:19.385Z,23.04
2023-04-25T00:24:19.379Z,23.03
2023-04-25T00:25:19.402Z,23.02
2023-04-25T00:26:19.773Z,23.02
2023-04-25T00:27:19.492Z,23.03
2023-04-25T00:28:19.514Z,23.03
2023-04-25T00:29:19.562Z,23.03
2023-04-25T00:30:19.571Z,23.02
2023-04-25T00:31:19.683Z,23.03
2023-04-25T00:32:19.586Z,23.02
2023-04-25T00:33:19.611Z,23.01
2023-04-25T00:34:19.644Z,23.02
2023-04-25T00:35:19.672Z,23.01
2023-04-25T00:36:19.755Z,23.00
2023-04-25T00:37:19.722Z,23.01
2023-04-25T00:38:19.784Z,23.01
2023-04-25T00:39:19.842Z,23.00
2023-04-25T00:40:19.847Z,23.00
2023-04-25T00:41:20.260Z,23.01
2023-04-25T00:42:19.848Z,23.00
2023-04-25T00:43:19.911Z,23.00
2023-04-25T00:44:19.955Z,23.00
2023-04-25T00:45:19.936Z,23.00
2023-04-25T00:46:20.309Z,23.00
2023-04-25T00:47:20.044Z,22.99
2023-04-25T00:48:20.048Z,22.99
2023-04-25T00:49:20.050Z,22.99
2023-04-25T00:50:20.080Z,22.99
2023-04-25T00:51:20.306Z,22.99
2023-04-25T00:52:20.128Z,22.99
2023-04-25T00:53:20.176Z,22.98
2023-04-25T00:54:20.189Z,22.98
2023-04-25T00:55:20.223Z,22.97
2023-04-25T00:56:20.757Z,22.99
2023-04-25T00:57:20.327Z,22.98
2023-04-25T00:58:20.360Z,22.98
2023-04-25T00:59:20.368Z,22.98
2023-04-25T01:00:20.398Z,22.98
2023-04-25T01:01:20.514Z,22.97
2023-04-25T01:02:20.585Z,22.97
2023-04-25T01:03:20.691Z,22.97
2023-04-25T01:04:20.641Z,22.98
2023-04-25T01:05:20.530Z,22.97
2023-04-25T01:06:20.595Z,22.97
2023-04-25T01:07:20.638Z,22.97
2023-04-25T01:08:20.669Z,22.96
2023-04-25T01:09:20.659Z,22.97
2023-04-25T01:10:20.726Z,22.96
2023-04-25T01:11:20.789Z,22.96
2023-04-25T01:12:20.779Z,22.96
2023-04-25T01:13:20.782Z,22.95
2023-04-25T01:14:20.794Z,22.96
2023-04-25T01:15:20.895Z,22.96
2023-04-25T01:16:21.345Z,22.96
2023-04-25T01:17:20.943Z,22.96
2023-04-25T01:18:20.913Z,22.95
2023-04-25T01:19:20.957Z,22.95
2023-04-25T01:20:20.999Z,22.95
2023-04-25T01:21:21.266Z,22.95
2023-04-25T01:22:21.127Z,22.95
2023-04-25T01:23:21.090Z,22.94
2023-04-25T01:24:21.116Z,22.94
2023-04-25T01:25:21.179Z,22.94
2023-04-25T01:26:21.173Z,22.93
2023-04-25T01:27:21.252Z,22.94
2023-04-25T01:28:21.248Z,22.93
2023-04-25T01:29:21.292Z,22.93
2023-04-25T01:30:21.330Z,22.93
2023-04-25T01:31:21.831Z,22.93
2023-04-25T01:32:21.477Z,22.93
2023-04-25T01:33:21.422Z,22.92
2023-04-25T01:34:21.428Z,22.93
2023-04-25T01:35:21.467Z,22.92
2023-04-25T01:36:21.772Z,22.93
2023-04-25T01:37:21.543Z,22.92
2023-04-25T01:38:21.575Z,22.92
2023-04-25T01:39:21.561Z,22.92
2023-04-25T01:40:21.594Z,22.92
2023-04-25T01:41:23.011Z,22.92
2023-04-25T01:42:21.659Z,22.92
2023-04-25T01:43:21.704Z,22.91
2023-04-25T01:44:21.728Z,22.92
2023-04-25T01:45:21.752Z,22.91
2023-04-25T01:46:22.380Z,22.91
2023-04-25T01:47:21.838Z,22.91
2023-04-25T01:48:21.870Z,22.91
2023-04-25T01:49:21.918Z,22.91
2023-04-25T01:50:21.926Z,22.91
2023-04-25T01:51:22.297Z,22.90
2023-04-25T01:52:21.994Z,22.89
2023-04-25T01:53:22.046Z,22.90
2023-04-25T01:54:22.055Z,22.90
2023-04-25T01:55:22.124Z,22.90
2023-04-25T01:56:22.790Z,22.90
2023-04-25T01:57:22.169Z,22.90
2023-04-25T01:58:22.209Z,22.89
2023-04-25T01:59:22.243Z,22.89
2023-04-25T02:00:22.307Z,22.90
2023-04-25T02:01:22.886Z,22.89
2023-04-25T02:02:22.475Z,22.89
2023-04-25T02:03:22.451Z,22.89
2023-04-25T02:04:22.605Z,22.88
2023-04-25T02:05:22.469Z,22.88
2023-04-25T02:06:22.567Z,22.88
2023-04-25T02:07:22.594Z,22.88
2023-04-25T02:08:22.658Z,22.88
2023-04-25T02:09:22.665Z,22.87
2023-04-25T02:10:22.710Z,22.87
2023-04-25T02:11:23.271Z,22.88
2023-04-25T02:12:22.828Z,22.87
2023-04-25T02:13:22.813Z,22.87
2023-04-25T02:14:22.880Z,22.87
2023-04-25T02:15:22.899Z,22.86
2023-04-25T02:16:23.487Z,22.86
2023-04-25T02:17:22.962Z,22.86
2023-04-25T02:18:22.998Z,22.86
2023-04-25T02:19:23.033Z,22.86
2023-04-25T02:20:23.068Z,22.86
2023-04-25T02:21:23.797Z,22.86
2023-04-25T02:22:23.139Z,22.86
2023-04-25T02:23:23.202Z,22.86
2023-04-25T02:24:23.201Z,22.86
2023-04-25T02:25:23.253Z,22.85
2023-04-25T02:26:23.301Z,22.85
2023-04-25T02:27:23.334Z,22.85
2023-04-25T02:28:23.339Z,22.85
2023-04-25T02:29:23.416Z,22.85
2023-04-25T02:30:23.440Z,22.84
2023-04-25T02:31:23.889Z,22.85
2023-04-25T02:32:23.543Z,22.84
2023-04-25T02:33:23.568Z,22.84
2023-04-25T02:34:23.587Z,22.84
2023-04-25T02:35:23.631Z,22.84
2023-04-25T02:36:23.797Z,22.84
2023-04-25T02:37:23.737Z,22.84
2023-04-25T02:38:23.775Z,22.83
2023-04-25T02:39:23.813Z,22.84
2023-04-25T02:40:23.886Z,22.83
2023-04-25T02:41:24.330Z,22.82
2023-04-25T02:42:23.952Z,22.83
2023-04-25T02:43:23.983Z,22.83
2023-04-25T02:44:24.019Z,22.83
2023-04-25T02:45:24.043Z,22.82
2023-04-25T02:46:37.706Z,22.83
2023-04-25T02:47:25.176Z,22.82
2023-04-25T02:48:24.096Z,22.82
2023-04-25T02:49:24.092Z,22.81
2023-04-25T02:50:24.080Z,22.82
2023-04-25T02:51:24.293Z,22.82
2023-04-25T02:52:24.076Z,22.81
2023-04-25T02:53:24.077Z,22.81
2023-04-25T02:54:24.047Z,22.81
2023-04-25T02:55:25.653Z,22.81
2023-04-25T02:56:24.295Z,22.80
2023-04-25T02:57:24.077Z,22.81
2023-04-25T02:58:24.078Z,22.81
2023-04-25T02:59:24.131Z,22.80
2023-04-25T03:00:24.080Z,22.81
2023-04-25T03:01:24.350Z,22.80
2023-04-25T03:02:24.065Z,22.80
2023-04-25T03:03:24.202Z,22.80
2023-04-25T03:04:24.060Z,22.80
2023-04-25T03:05:24.052Z,22.80
2023-04-25T03:06:24.070Z,22.80
2023-04-25T03:07:24.011Z,22.79
2023-04-25T03:08:24.014Z,22.80
2023-04-25T03:09:24.010Z,22.79
2023-04-25T03:10:24.003Z,22.78
2023-04-25T03:11:23.997Z,22.79
2023-04-25T03:12:24.792Z,22.79
2023-04-25T03:13:24.018Z,22.78
2023-04-25T03:14:23.955Z,22.78
2023-04-25T03:15:23.982Z,22.78
2023-04-25T03:16:23.984Z,22.78
2023-04-25T03:17:24.004Z,22.78
2023-04-25T03:18:23.919Z,22.78
2023-04-25T03:19:23.948Z,22.78
2023-04-25T03:20:23.922Z,22.78
2023-04-25T03:21:23.899Z,22.77
2023-04-25T03:22:23.918Z,22.78
2023-04-25T03:23:23.874Z,22.77
2023-04-25T03:24:23.891Z,22.78
2023-04-25T03:25:23.896Z,22.77
2023-04-25T03:26:23.881Z,22.77
2023-04-25T03:27:23.908Z,22.77
2023-04-25T03:28:23.862Z,22.77
2023-04-25T03:29:23.886Z,22.77
2023-04-25T03:30:23.950Z,22.76
2023-04-25T03:31:24.112Z,22.77
2023-04-25T03:32:24.445Z,22.76
2023-04-25T03:33:24.113Z,22.77
2023-04-25T03:34:24.134Z,22.76
2023-04-25T03:35:25.884Z,22.76
2023-04-25T03:36:24.831Z,22.76
2023-04-25T03:37:24.287Z,22.75
2023-04-25T03:38:24.404Z,22.75
2023-04-25T03:39:24.406Z,22.75
2023-04-25T03:40:24.454Z,22.74
2023-04-25T03:41:24.523Z,22.75
2023-04-25T03:42:24.546Z,22.75
2023-04-25T03:43:24.599Z,22.75
2023-04-25T03:44:24.635Z,22.74
2023-04-25T03:45:24.660Z,22.74
2023-04-25T03:46:24.870Z,22.74
2023-04-25T03:47:24.729Z,22.74
2023-04-25T03:48:24.789Z,22.74
2023-04-25T03:49:24.824Z,22.74
2023-04-25T03:50:24.950Z,22.74
2023-04-25T03:51:24.949Z,22.74
2023-04-25T03:52:25.361Z,22.74
2023-04-25T03:53:25.015Z,22.74
2023-04-25T03:54:25.066Z,22.73
2023-04-25T03:55:25.102Z,22.73
2023-04-25T03:56:25.133Z,22.73
2023-04-25T03:57:25.188Z,22.72
2023-04-25T03:58:25.268Z,22.73
2023-04-25T03:59:25.302Z,22.73
2023-04-25T04:00:25.417Z,22.72
2023-04-25T04:01:25.416Z,22.72
2023-04-25T04:02:25.891Z,22.73
2023-04-25T04:03:25.763Z,22.72
2023-04-25T04:04:25.781Z,22.72
2023-04-25T04:05:25.697Z,22.72
2023-04-25T04:06:25.662Z,22.72
2023-04-25T04:07:25.853Z,22.72
2023-04-25T04:08:25.782Z,22.71
2023-04-25T04:09:25.778Z,22.70
2023-04-25T04:10:25.824Z,22.70
2023-04-25T04:11:25.851Z,22.70
2023-04-25T04:12:26.377Z,22.70
2023-04-25T04:13:26.008Z,22.70
2023-04-25T04:14:26.016Z,22.70
2023-04-25T04:15:26.097Z,22.71
2023-04-25T04:16:26.199Z,22.70
2023-04-25T04:17:26.254Z,22.70
2023-04-25T04:18:26.259Z,22.70
2023-04-25T04:19:26.286Z,22.69
2023-04-25T04:20:26.329Z,22.68
2023-04-25T04:21:26.410Z,22.69
2023-04-25T04:22:26.454Z,22.69
2023-04-25T04:23:26.517Z,22.69
2023-04-25T04:24:26.583Z,22.69
2023-04-25T04:25:26.613Z,22.68
2023-04-25T04:26:26.675Z,22.68
2023-04-25T04:27:26.906Z,22.68
2023-04-25T04:28:26.768Z,22.68
2023-04-25T04:29:26.846Z,22.68
2023-04-25T04:30:26.889Z,22.68
2023-04-25T04:31:26.968Z,22.68
2023-04-25T04:32:27.401Z,22.67
2023-04-25T04:33:27.045Z,22.68
2023-04-25T04:34:27.086Z,22.68
2023-04-25T04:35:27.152Z,22.67
2023-04-25T04:36:27.194Z,22.67
2023-04-25T04:37:27.361Z,22.66
2023-04-25T04:38:27.322Z,22.66
2023-04-25T04:39:27.328Z,22.66
2023-04-25T04:40:27.370Z,22.66
2023-04-25T04:41:27.469Z,22.66
2023-04-25T04:42:27.484Z,22.66
2023-04-25T04:43:27.524Z,22.65
2023-04-25T04:44:27.559Z,22.66
2023-04-25T04:45:27.650Z,22.66
2023-04-25T04:46:27.687Z,22.66
2023-04-25T04:47:27.901Z,22.65
2023-04-25T04:48:27.796Z,22.65
2023-04-25T04:49:27.798Z,22.65
2023-04-25T04:50:27.863Z,22.65
2023-04-25T04:51:27.916Z,22.64
2023-04-25T04:52:28.359Z,22.65
2023-04-25T04:53:28.046Z,22.67
2023-04-25T04:54:28.102Z,22.68
2023-04-25T04:55:28.120Z,22.67
2023-04-25T04:56:28.175Z,22.68
2023-04-25T04:57:28.345Z,22.68
2023-04-25T04:58:28.278Z,22.67
2023-04-25T04:59:28.312Z,22.68
2023-04-25T05:00:29.709Z,22.66
2023-04-25T05:01:28.461Z,22.66
2023-04-25T05:02:28.996Z,22.65
2023-04-25T05:03:28.674Z,22.64
2023-04-25T05:04:28.625Z,22.64
2023-04-25T05:05:28.658Z,22.63
2023-04-25T05:06:28.606Z,22.62
2023-04-25T05:07:28.865Z,22.62
2023-04-25T05:08:28.659Z,22.61
2023-04-25T05:09:28.727Z,22.61
2023-04-25T05:10:28.735Z,22.60
2023-04-25T05:11:28.790Z,22.60
2023-04-25T05:12:28.896Z,22.59
2023-04-25T05:13:28.897Z,22.58
2023-04-25T05:14:28.907Z,22.59
2023-04-25T05:15:28.990Z,22.58
2023-04-25T05:16:29.068Z,22.57
2023-04-25T05:17:29.413Z,22.57
2023-04-25T05:18:29.100Z,22.58
2023-04-25T05:19:29.161Z,22.57
2023-04-25T05:20:29.180Z,22.57
2023-04-25T05:21:29.207Z,22.56
2023-04-25T05:22:29.397Z,22.57
2023-04-25T05:23:29.310Z,22.57
2023-04-25T05:24:29.398Z,22.57
2023-04-25T05:25:29.447Z,22.57
2023-04-25T05:26:29.514Z,22.56
2023-04-25T05:27:29.892Z,22.57
2023-04-25T05:28:29.587Z,22.56
2023-04-25T05:29:29.658Z,22.56
2023-04-25T05:30:29.697Z,22.57
2023-04-25T05:31:29.814Z,22.57
2023-04-25T05:32:29.986Z,22.56
2023-04-25T05:33:29.875Z,22.57
2023-04-25T05:34:29.949Z,22.56
2023-04-25T05:35:30.075Z,22.56
2023-04-25T05:36:30.049Z,22.57
2023-04-25T05:37:30.400Z,22.56
2023-04-25T05:38:31.494Z,22.57
2023-04-25T05:39:30.209Z,22.56
2023-04-25T05:40:30.247Z,22.58
2023-04-25T05:41:30.336Z,22.58
2023-04-25T05:42:30.872Z,22.58
2023-04-25T05:43:30.441Z,22.58
2023-04-25T05:44:30.478Z,22.58
2023-04-25T05:45:30.517Z,22.58
2023-04-25T05:46:30.624Z,22.58
2023-04-25T05:47:30.919Z,22.58
2023-04-25T05:48:30.620Z,22.58
2023-04-25T05:49:30.690Z,22.58
2023-04-25T05:50:30.736Z,22.59
2023-04-25T05:51:30.807Z,22.59
2023-04-25T05:52:30.866Z,22.59
2023-04-25T05:53:30.845Z,22.59
2023-04-25T05:54:30.916Z,22.58
2023-04-25T05:55:30.967Z,22.58
2023-04-25T05:56:31.010Z,22.58
2023-04-25T05:57:31.391Z,22.58
2023-04-25T05:58:31.095Z,22.58
2023-04-25T05:59:31.112Z,22.57
2023-04-25T06:00:31.194Z,22.56
2023-04-25T06:01:31.153Z,22.57
2023-04-25T06:02:31.951Z,22.57
2023-04-25T06:03:31.554Z,22.56
2023-04-25T06:04:31.480Z,22.56
2023-04-25T06:05:31.675Z,22.56
2023-04-25T06:06:32.306Z,22.55
2023-04-25T06:07:31.329Z,22.54
2023-04-25T06:08:31.292Z,22.54
2023-04-25T06:09:31.322Z,22.54
2023-04-25T06:10:31.315Z,22.54
2023-04-25T06:11:31.297Z,22.53
2023-04-25T06:12:31.408Z,22.54
2023-04-25T06:13:31.308Z,22.53
2023-04-25T06:14:31.265Z,22.53
2023-04-25T06:15:31.282Z,22.54
2023-04-25T06:16:31.391Z,22.53
2023-04-25T06:17:31.340Z,22.52
2023-04-25T06:18:31.236Z,22.52
2023-04-25T06:19:31.243Z,22.53
2023-04-25T06:20:31.230Z,22.53
2023-04-25T06:21:31.185Z,22.52
2023-04-25T06:22:31.221Z,22.52
2023-04-25T06:23:31.200Z,22.52
2023-04-25T06:24:31.281Z,22.52
2023-04-25T06:25:31.299Z,22.52
2023-04-25T06:26:31.330Z,22.52
2023-04-25T06:27:31.381Z,22.51
2023-04-25T06:28:31.388Z,22.51
2023-04-25T06:29:31.452Z,22.51
2023-04-25T06:30:31.508Z,22.51
2023-04-25T06:31:31.482Z,22.51
2023-04-25T06:32:31.896Z,22.51
2023-04-25T06:33:31.478Z,22.51
2023-04-25T06:34:31.488Z,22.50
2023-04-25T06:35:31.499Z,22.50
2023-04-25T06:36:31.514Z,22.50
2023-04-25T06:37:31.539Z,22.50
2023-04-25T06:38:31.603Z,22.50
2023-04-25T06:39:31.613Z,22.49
2023-04-25T06:40:31.654Z,22.47
2023-04-25T06:41:31.766Z,22.48
2023-04-25T06:42:31.882Z,22.48
2023-04-25T06:43:31.802Z,22.47
2023-04-25T06:44:31.833Z,22.48
2023-04-25T06:45:31.872Z,22.48
2023-04-25T06:46:31.939Z,22.46
2023-04-25T06:47:32.441Z,22.47
2023-04-25T06:48:31.965Z,22.46
2023-04-25T06:49:31.995Z,22.47
2023-04-25T06:50:32.077Z,22.45
2023-04-25T06:51:32.127Z,22.45
2023-04-25T06:52:32.144Z,22.45
2023-04-25T06:53:32.242Z,22.45
2023-04-25T06:54:32.265Z,22.44
2023-04-25T06:55:32.256Z,22.44
2023-04-25T06:56:32.304Z,22.45
2023-04-25T06:57:32.364Z,22.45
2023-04-25T06:58:32.911Z,22.46
2023-04-25T06:59:32.521Z,22.45
2023-04-25T07:00:32.573Z,22.47
2023-04-25T07:01:32.583Z,22.46
2023-04-25T07:02:32.701Z,22.48
2023-04-25T07:03:33.051Z,22.50
2023-04-25T07:04:32.847Z,22.51
2023-04-25T07:05:32.759Z,22.51
2023-04-25T07:06:32.799Z,22.54
2023-04-25T07:07:32.850Z,22.55
2023-04-25T07:08:32.858Z,22.56
2023-04-25T07:09:32.900Z,22.58
2023-04-25T07:10:32.917Z,22.59
2023-04-25T07:11:32.972Z,22.61
2023-04-25T07:12:33.018Z,22.63
2023-04-25T07:13:33.020Z,22.64
2023-04-25T07:14:33.018Z,22.65
2023-04-25T07:15:33.084Z,22.68
2023-04-25T07:16:33.134Z,22.70
2023-04-25T07:17:33.104Z,22.72
2023-04-25T07:18:33.140Z,22.73
2023-04-25T07:19:33.160Z,22.74
2023-04-25T07:20:33.109Z,22.77
2023-04-25T07:21:33.163Z,22.77
2023-04-25T07:22:33.166Z,22.80
2023-04-25T07:23:33.416Z,22.81
2023-04-25T07:24:33.209Z,22.82
2023-04-25T07:25:33.217Z,22.84
2023-04-25T07:26:33.194Z,22.85
2023-04-25T07:27:33.228Z,22.86
2023-04-25T07:28:33.435Z,22.88
2023-04-25T07:29:33.212Z,22.89
2023-04-25T07:30:33.258Z,22.91
2023-04-25T07:31:33.248Z,22.92
2023-04-25T07:32:33.277Z,22.93
2023-04-25T07:33:33.456Z,22.94
2023-04-25T07:34:33.260Z,22.95
2023-04-25T07:35:33.238Z,22.97
2023-04-25T07:36:33.283Z,22.98
2023-04-25T07:37:33.233Z,22.99
2023-04-25T07:38:33.313Z,23.00
2023-04-25T07:39:33.288Z,23.02
2023-04-25T07:40:33.268Z,23.04
2023-04-25T07:41:33.286Z,23.04
2023-04-25T07:42:33.297Z,23.05
2023-04-25T07:43:33.434Z,23.06
2023-04-25T07:44:33.301Z,23.07
2023-04-25T07:45:33.391Z,23.09
2023-04-25T07:46:33.345Z,23.09
2023-04-25T07:47:33.414Z,23.10
2023-04-25T07:48:33.425Z,23.11
2023-04-25T07:49:33.360Z,23.11
2023-04-25T07:50:33.326Z,23.11
2023-04-25T07:51:33.362Z,23.12
2023-04-25T07:52:33.378Z,23.13
2023-04-25T07:53:33.432Z,23.14
2023-04-25T07:54:33.346Z,23.14
2023-04-25T07:55:33.377Z,23.15
2023-04-25T07:56:41.841Z,23.15
2023-04-25T07:57:34.928Z,23.15
2023-04-25T07:58:33.430Z,23.16
2023-04-25T07:59:33.349Z,23.16
2023-04-25T08:00:33.339Z,23.17
2023-04-25T08:01:33.296Z,23.17
2023-04-25T08:02:33.567Z,23.17
2023-04-25T08:03:33.676Z,23.17
2023-04-25T08:04:33.416Z,23.18
2023-04-25T08:05:33.363Z,23.17
2023-04-25T08:06:33.435Z,23.17
2023-04-25T08:07:33.310Z,23.17
2023-04-25T08:08:33.428Z,23.17
2023-04-25T08:09:33.252Z,23.18
2023-04-25T08:10:33.242Z,23.18
2023-04-25T08:11:33.220Z,23.19
2023-04-25T08:12:33.230Z,23.19
2023-04-25T08:13:33.249Z,23.18
2023-04-25T08:14:33.253Z,23.20
2023-04-25T08:15:33.258Z,23.20
2023-04-25T08:16:33.378Z,23.20
2023-04-25T08:17:33.225Z,23.21
2023-04-25T08:18:33.423Z,23.22
2023-04-25T08:19:33.163Z,23.22
2023-04-25T08:20:33.142Z,23.23
2023-04-25T08:21:33.208Z,23.23
2023-04-25T08:22:33.154Z,23.24
2023-04-25T08:23:33.464Z,23.24
2023-04-25T08:24:33.155Z,23.24
2023-04-25T08:25:33.152Z,23.25
2023-04-25T08:26:33.121Z,23.26
2023-04-25T08:27:33.088Z,23.26
2023-04-25T08:28:33.410Z,23.27
2023-04-25T08:29:33.112Z,23.27
2023-04-25T08:30:33.080Z,23.28
2023-04-25T08:31:33.145Z,23.28
2023-04-25T08:32:33.118Z,23.29
2023-04-25T08:33:33.430Z,23.30
2023-04-25T08:34:33.071Z,23.29
2023-04-25T08:35:33.977Z,23.30
2023-04-25T08:36:39.164Z,23.31
2023-04-25T08:37:34.070Z,23.30
2023-04-25T08:38:33.428Z,23.32
2023-04-25T08:39:33.018Z,23.31
2023-04-25T08:40:33.025Z,23.32
2023-04-25T08:41:33.049Z,23.33
2023-04-25T08:42:33.018Z,23.33
2023-04-25T08:43:33.453Z,23.32
2023-04-25T08:44:33.058Z,23.33
2023-04-25T08:45:33.007Z,23.33
2023-04-25T08:46:33.033Z,23.34
2023-04-25T08:47:33.047Z,23.34
2023-04-25T08:48:33.444Z,23.36
2023-04-25T08:49:32.965Z,23.36
2023-04-25T08:50:32.990Z,23.37
2023-04-25T08:51:32.917Z,23.41
2023-04-25T08:52:32.934Z,23.41
2023-04-25T08:53:33.923Z,23.42
2023-04-25T08:54:35.264Z,23.48
2023-04-25T08:55:32.921Z,23.51
2023-04-25T08:56:32.894Z,23.56
2023-04-25T08:57:32.883Z,23.58
2023-04-25T08:58:32.937Z,23.59
2023-04-25T08:59:32.920Z,23.61
2023-04-25T09:00:32.898Z,23.64
2023-04-25T09:01:33.464Z,23.67
2023-04-25T09:02:33.073Z,23.69
2023-04-25T09:03:33.030Z,23.70
2023-04-25T09:04:32.912Z,23.71
2023-04-25T09:05:32.895Z,23.71
2023-04-25T09:06:32.855Z,23.72
2023-04-25T09:07:32.852Z,23.73
2023-04-25T09:08:32.817Z,23.74
2023-04-25T09:09:32.825Z,23.74
2023-04-25T09:11:32.842Z,23.75
2023-04-25T09:12:32.817Z,23.75
2023-04-25T09:13:32.801Z,23.75
2023-04-25T09:14:33.084Z,23.77
2023-04-25T09:15:32.790Z,23.78
2023-04-25T09:16:33.741Z,23.78
2023-04-25T09:17:32.779Z,23.78
2023-04-25T09:18:32.740Z,23.79
2023-04-25T09:19:40.332Z,23.79
2023-04-25T09:20:37.799Z,23.80
2023-04-25T09:21:33.716Z,23.80
2023-04-25T09:22:32.751Z,23.80
2023-04-25T09:23:32.761Z,23.82
2023-04-25T09:24:32.945Z,23.82
2023-04-25T09:25:32.724Z,23.83
2023-04-25T09:26:32.725Z,23.83
2023-04-25T09:27:32.657Z,23.83
2023-04-25T09:28:32.662Z,23.85
2023-04-25T09:29:32.701Z,23.86
2023-04-25T09:30:32.664Z,23.87
2023-04-25T09:31:32.676Z,23.90
2023-04-25T09:32:32.711Z,23.91
2023-04-25T09:33:32.688Z,23.92
2023-04-25T09:34:32.689Z,23.94
2023-04-25T09:35:32.638Z,23.96
2023-04-25T09:36:32.621Z,23.97
2023-04-25T09:37:32.606Z,23.99
2023-04-25T09:38:32.626Z,24.01
2023-04-25T09:39:33.031Z,24.03
2023-04-25T09:40:32.586Z,24.03
2023-04-25T09:41:32.568Z,24.05
2023-04-25T09:42:32.565Z,24.07
2023-04-25T09:43:32.589Z,24.08
2023-04-25T09:44:32.599Z,24.08
2023-04-25T09:45:32.600Z,24.10
2023-04-25T09:46:32.619Z,24.10
2023-04-25T09:47:32.603Z,24.10
2023-04-25T09:48:32.517Z,24.09
2023-04-25T09:49:32.527Z,24.09
2023-04-25T09:50:32.533Z,24.08
2023-04-25T09:51:32.566Z,24.09
2023-04-25T09:52:32.512Z,24.08
2023-04-25T09:53:32.517Z,24.08
2023-04-25T09:54:32.973Z,24.08
2023-04-25T09:55:32.491Z,24.07
2023-04-25T09:56:32.543Z,24.06
2023-04-25T09:57:32.620Z,24.04
2023-04-25T09:58:33.371Z,24.03
2023-04-25T09:59:32.965Z,24.02
2023-04-25T10:00:32.779Z,24.01
2023-04-25T10:01:32.885Z,23.99
2023-04-25T10:02:32.944Z,23.98
2023-04-25T10:03:33.210Z,23.96
2023-04-25T10:04:34.170Z,23.92
2023-04-25T10:05:33.074Z,23.91
2023-04-25T10:06:33.078Z,23.90
2023-04-25T10:07:33.141Z,23.88
2023-04-25T10:08:33.146Z,23.85
2023-04-25T10:09:33.487Z,23.83
2023-04-25T10:10:33.105Z,23.81
2023-04-25T10:11:33.106Z,23.78
2023-04-25T10:12:33.082Z,23.78
2023-04-25T10:13:33.097Z,23.75
2023-04-25T10:14:33.110Z,23.72
2023-04-25T10:15:33.166Z,23.70
2023-04-25T10:16:33.199Z,23.70
2023-04-25T10:17:33.114Z,23.68
2023-04-25T10:18:33.108Z,23.67
2023-04-25T10:19:33.119Z,23.65
2023-04-25T10:20:33.112Z,23.63
2023-04-25T10:21:33.137Z,23.63
2023-04-25T10:22:33.096Z,23.61
2023-04-25T10:23:33.116Z,23.60
2023-04-25T10:24:33.114Z,23.59
2023-04-25T10:25:33.122Z,23.57
2023-04-25T10:26:33.098Z,23.56
2023-04-25T10:27:33.173Z,23.56
2023-04-25T10:28:33.997Z,23.54
2023-04-25T10:29:33.186Z,23.52
2023-04-25T10:30:33.214Z,23.49
2023-04-25T10:31:33.335Z,23.47
2023-04-25T10:32:33.167Z,23.45
2023-04-25T10:33:33.183Z,23.42
2023-04-25T10:34:33.529Z,23.41
2023-04-25T10:35:33.219Z,23.38
2023-04-25T10:36:33.197Z,23.36
2023-04-25T10:37:33.188Z,23.35
2023-04-25T10:38:33.259Z,23.34
2023-04-25T10:39:33.497Z,23.33
2023-04-25T10:40:33.219Z,23.32
2023-04-25T10:41:33.266Z,23.30
2023-04-25T10:42:33.279Z,23.29
2023-04-25T10:43:33.280Z,23.28
2023-04-25T10:44:33.491Z,23.27
2023-04-25T10:45:33.314Z,23.25
2023-04-25T10:46:33.356Z,23.23
2023-04-25T10:47:33.389Z,23.22
2023-04-25T10:48:33.412Z,23.21
2023-04-25T10:49:33.528Z,23.20
2023-04-25T10:50:33.394Z,23.19
2023-04-25T10:51:47.394Z,23.19
2023-04-25T10:52:34.420Z,23.19
2023-04-25T10:53:33.456Z,23.19
2023-04-25T10:54:33.483Z,23.20
2023-04-25T10:55:33.398Z,23.22
2023-04-25T10:56:33.372Z,23.23
2023-04-25T10:57:33.383Z,23.24
2023-04-25T10:58:33.354Z,23.25
2023-04-25T10:59:33.493Z,23.27
2023-04-25T11:00:42.928Z,23.29
2023-04-25T11:01:34.389Z,23.29
2023-04-25T11:02:33.523Z,23.32
2023-04-25T11:03:33.462Z,23.33
2023-04-25T11:04:33.745Z,23.35
2023-04-25T11:05:36.425Z,23.36
2023-04-25T11:06:34.293Z,23.37
2023-04-25T11:07:34.310Z,23.38
2023-04-25T11:08:33.314Z,23.39
2023-04-25T11:09:33.504Z,23.41
2023-04-25T11:10:33.357Z,23.42
2023-04-25T11:11:33.279Z,23.43
2023-04-25T11:12:33.282Z,23.45
2023-04-25T11:13:33.293Z,23.46
2023-04-25T11:14:33.520Z,23.47
2023-04-25T11:15:33.255Z,23.48
2023-04-25T11:16:33.281Z,23.48
2023-04-25T11:17:33.323Z,23.50
2023-04-25T11:18:33.275Z,23.51
2023-04-25T11:19:33.499Z,23.51
2023-04-25T11:20:33.232Z,23.53
2023-04-25T11:21:33.212Z,23.53
2023-04-25T11:22:33.252Z,23.54
2023-04-25T11:23:33.212Z,23.54
2023-04-25T11:24:33.515Z,23.55
2023-04-25T11:25:34.349Z,23.56
2023-04-25T11:26:33.198Z,23.56
2023-04-25T11:27:33.192Z,23.57
2023-04-25T11:28:33.162Z,23.57
2023-04-25T11:29:33.628Z,23.58
2023-04-25T11:30:33.139Z,23.58
2023-04-25T11:31:33.189Z,23.57
2023-04-25T11:32:33.312Z,23.57
2023-04-25T11:33:33.134Z,23.57
2023-04-25T11:34:33.541Z,23.57
2023-04-25T11:35:33.140Z,23.57
2023-04-25T11:36:33.261Z,23.56
2023-04-25T11:37:33.085Z,23.55
2023-04-25T11:38:33.120Z,23.52
2023-04-25T11:39:33.508Z,23.51
2023-04-25T11:40:33.110Z,23.50
2023-04-25T11:41:33.123Z,23.48
2023-04-25T11:42:33.132Z,23.46
2023-04-25T11:43:33.199Z,23.44
2023-04-25T11:44:33.517Z,23.43
2023-04-25T11:45:33.144Z,23.42
2023-04-25T11:46:33.202Z,23.41
2023-04-25T11:47:33.188Z,23.39
2023-04-25T11:48:33.130Z,23.38
2023-04-25T11:49:33.525Z,23.37
2023-04-25T11:50:33.141Z,23.37
2023-04-25T11:51:33.146Z,23.35
2023-04-25T11:52:33.153Z,23.35
2023-04-25T11:53:33.171Z,23.34
2023-04-25T11:54:33.535Z,23.34
2023-04-25T11:55:33.193Z,23.32
2023-04-25T11:56:33.188Z,23.33
2023-04-25T11:57:33.194Z,23.31
2023-04-25T11:58:33.244Z,23.31
2023-04-25T11:59:33.245Z,23.31
2023-04-25T12:00:33.259Z,23.30
2023-04-25T12:01:33.589Z,23.30
2023-04-25T12:02:33.327Z,23.30
2023-04-25T12:03:33.403Z,23.29
2023-04-25T12:04:33.550Z,23.29
2023-04-25T12:05:34.571Z,23.29
2023-04-25T12:06:33.355Z,23.29
2023-04-25T12:07:33.296Z,23.28
2023-04-25T12:08:33.314Z,23.28
2023-04-25T12:09:33.313Z,23.28
2023-04-25T12:10:33.320Z,23.28
2023-04-25T12:11:33.383Z,23.28
2023-04-25T12:12:33.345Z,23.27
2023-04-25T12:13:33.344Z,23.27
2023-04-25T12:14:33.371Z,23.27
2023-04-25T12:15:33.354Z,23.26
2023-04-25T12:16:33.424Z,23.26
2023-04-25T12:17:33.408Z,23.26
2023-04-25T12:18:33.369Z,23.26
2023-04-25T12:19:33.395Z,23.26
2023-04-25T12:20:33.573Z,23.25
2023-04-25T12:21:34.198Z,23.25
2023-04-25T12:22:33.482Z,23.24
2023-04-25T12:23:33.418Z,23.23
2023-04-25T12:24:33.489Z,23.23
2023-04-25T12:25:33.640Z,23.23
2023-04-25T12:26:33.463Z,23.22
2023-04-25T12:27:34.559Z,23.23
2023-04-25T12:28:33.430Z,23.23
2023-04-25T12:29:41.988Z,23.22
2023-04-25T12:30:34.406Z,23.21
2023-04-25T12:31:33.475Z,23.21
2023-04-25T12:32:33.469Z,23.22
2023-04-25T12:33:33.420Z,23.22
2023-04-25T12:34:33.414Z,23.22
2023-04-25T12:35:33.613Z,23.21
2023-04-25T12:36:33.408Z,23.21
2023-04-25T12:37:33.358Z,23.21
2023-04-25T12:38:33.348Z,23.21
2023-04-25T12:39:33.343Z,23.20
2023-04-25T12:40:33.369Z,23.21
2023-04-25T12:41:33.333Z,23.21
2023-04-25T12:42:33.344Z,23.22
2023-04-25T12:43:33.329Z,23.22
2023-04-25T12:44:33.357Z,23.22
2023-04-25T12:45:33.292Z,23.21
2023-04-25T12:46:33.326Z,23.22
2023-04-25T12:47:33.335Z,23.22
2023-04-25T12:48:33.302Z,23.23
2023-04-25T12:49:33.309Z,23.23
2023-04-25T12:50:33.295Z,23.23
2023-04-25T12:51:33.294Z,23.23
2023-04-25T12:52:33.278Z,23.24
2023-04-25T12:53:35.512Z,23.23